createdAt,value
2018-11-26T00:01:36.792Z,6.16
2018-11-26T00:04:42.305Z,6.01
2018-11-26T00:07:49.029Z,5.97
2018-11-26T00:12:02.952Z,6.01
2018-11-26T00:15:08.592Z,6.01
2018-11-26T00:18:13.996Z,5.97
2018-11-26T00:21:19.396Z,6.02
2018-11-26T00:24:24.801Z,6.04
2018-11-26T00:27:30.441Z,5.99
2018-11-26T00:30:35.962Z,6.04
2018-11-26T00:33:41.486Z,5.83
2018-11-26T00:36:46.887Z,5.90
2018-11-26T00:39:52.291Z,5.85
2018-11-26T00:42:57.691Z,5.91
2018-11-26T00:46:03.214Z,5.97
2018-11-26T00:49:08.620Z,5.92
2018-11-26T00:52:14.017Z,6.01
2018-11-26T00:55:19.422Z,6.04
2018-11-26T00:58:24.822Z,6.10
2018-11-26T01:01:30.224Z,6.07
2018-11-26T01:04:35.668Z,6.05
2018-11-26T01:07:41.028Z,5.94
2018-11-26T01:10:46.310Z,5.95
2018-11-26T01:13:51.711Z,5.91
2018-11-26T01:16:57.114Z,5.95
2018-11-26T01:20:02.516Z,5.99
2018-11-26T01:23:07.919Z,6.11
2018-11-26T01:26:13.321Z,6.19
2018-11-26T01:29:18.963Z,5.87
2018-11-26T01:32:24.366Z,5.98
2018-11-26T01:35:29.647Z,5.99
2018-11-26T01:38:35.049Z,6.01
2018-11-26T01:41:40.452Z,6.11
2018-11-26T01:44:45.855Z,6.08
2018-11-26T01:47:51.256Z,6.06
2018-11-26T01:50:56.657Z,6.20
2018-11-26T01:54:02.180Z,6.14
2018-11-26T01:57:07.581Z,6.05
2018-11-26T02:00:19.585Z,6.14
2018-11-26T02:03:24.988Z,6.17
2018-11-26T02:06:30.506Z,6.05
2018-11-26T02:09:35.909Z,6.07
2018-11-26T02:12:41.312Z,6.07
2018-11-26T02:15:46.593Z,5.99
2018-11-26T02:18:51.997Z,5.78
2018-11-26T02:21:57.401Z,5.80
2018-11-26T02:25:02.683Z,5.88
2018-11-26T02:28:08.084Z,5.99
2018-11-26T02:31:13.484Z,5.99
2018-11-26T02:34:18.886Z,5.96
2018-11-26T02:37:24.447Z,5.84
2018-11-26T02:40:31.252Z,5.76
2018-11-26T02:43:36.655Z,5.79
2018-11-26T02:46:42.054Z,5.83
2018-11-26T02:49:47.336Z,5.78
2018-11-26T02:53:03.539Z,5.90
2018-11-26T02:56:09.060Z,5.74
2018-11-26T02:59:14.463Z,5.74
2018-11-26T03:02:20.105Z,5.80
2018-11-26T03:05:26.827Z,5.80
2018-11-26T03:08:32.229Z,5.88
2018-11-26T03:11:37.991Z,5.84
2018-11-26T03:14:43.634Z,5.78
2018-11-26T03:17:49.038Z,5.69
2018-11-26T03:20:54.438Z,5.79
2018-11-26T03:23:59.840Z,5.85
2018-11-26T03:27:05.842Z,5.91
2018-11-26T03:30:13.525Z,5.78
2018-11-26T03:33:19.288Z,5.88
2018-11-26T03:36:24.808Z,5.91
2018-11-26T03:39:30.210Z,5.89
2018-11-26T03:42:35.613Z,6.07
2018-11-26T03:45:41.014Z,6.01
2018-11-26T03:48:46.536Z,5.85
2018-11-26T03:51:52.059Z,5.93
2018-11-26T03:54:57.460Z,5.78
2018-11-26T03:58:02.863Z,5.86
2018-11-26T04:01:08.144Z,5.87
2018-11-26T04:04:13.546Z,5.88
2018-11-26T04:07:18.950Z,5.88
2018-11-26T04:10:24.470Z,5.89
2018-11-26T04:13:29.993Z,5.92
2018-11-26T04:16:35.643Z,5.94
2018-11-26T04:19:40.924Z,6.03
2018-11-26T04:22:46.320Z,5.93
2018-11-26T04:25:52.081Z,5.65
2018-11-26T04:28:57.603Z,5.80
2018-11-26T04:32:03.005Z,5.75
2018-11-26T04:35:08.767Z,5.57
2018-11-26T04:38:14.410Z,5.73
2018-11-26T04:41:20.052Z,5.68
2018-11-26T04:44:25.454Z,5.70
2018-11-26T04:47:30.855Z,5.55
2018-11-26T04:50:36.258Z,5.53
2018-11-26T04:53:41.659Z,5.49
2018-11-26T04:56:47.061Z,5.58
2018-11-26T04:59:52.344Z,5.60
2018-11-26T05:02:57.872Z,5.55
2018-11-26T05:06:03.148Z,5.54
2018-11-26T05:09:09.149Z,5.52
2018-11-26T05:12:14.673Z,5.48
2018-11-26T05:15:19.954Z,5.48
2018-11-26T05:18:25.357Z,5.48
2018-11-26T05:21:31.002Z,5.55
2018-11-26T05:24:36.400Z,5.59
2018-11-26T05:27:41.803Z,5.53
2018-11-26T05:30:47.205Z,5.56
2018-11-26T05:33:52.607Z,5.63
2018-11-26T05:36:58.252Z,5.55
2018-11-26T05:40:05.937Z,5.52
2018-11-26T05:43:11.572Z,5.56
2018-11-26T05:46:17.457Z,5.46
2018-11-26T05:49:23.337Z,5.61
2018-11-26T05:52:29.222Z,5.59
2018-11-26T05:55:35.100Z,5.43
2018-11-26T05:58:40.624Z,5.50
2018-11-26T06:01:46.508Z,5.62
2018-11-26T06:04:52.270Z,5.70
2018-11-26T06:07:58.033Z,5.65
2018-11-26T06:11:03.791Z,5.54
2018-11-26T06:14:09.319Z,5.39
2018-11-26T06:17:14.835Z,5.38
2018-11-26T06:20:20.961Z,5.33
2018-11-26T06:23:26.483Z,5.36
2018-11-26T06:26:32.248Z,5.46
2018-11-26T06:29:37.883Z,5.34
2018-11-26T06:32:43.888Z,5.37
2018-11-26T06:35:49.888Z,5.22
2018-11-26T06:38:55.534Z,5.31
2018-11-26T06:42:01.298Z,5.34
2018-11-26T06:45:22.774Z,5.36
2018-11-26T06:48:28.298Z,5.45
2018-11-26T06:51:33.821Z,5.46
2018-11-26T06:54:39.345Z,5.33
2018-11-26T06:57:44.880Z,5.33
2018-11-26T07:00:50.506Z,5.40
2018-11-26T07:03:56.273Z,5.41
2018-11-26T07:07:01.916Z,5.46
2018-11-26T07:10:08.752Z,5.47
2018-11-26T07:13:14.273Z,5.44
2018-11-26T07:16:20.155Z,5.47
2018-11-26T07:19:25.916Z,5.48
2018-11-26T07:22:31.562Z,5.49
2018-11-26T07:25:37.576Z,5.50
2018-11-26T07:28:43.809Z,5.52
2018-11-26T07:31:49.688Z,5.54
2018-11-26T07:34:55.451Z,5.58
2018-11-26T07:38:01.451Z,5.59
2018-11-26T07:41:07.218Z,5.59
2018-11-26T07:44:21.020Z,5.61
2018-11-26T07:47:26.780Z,5.62
2018-11-26T07:50:32.551Z,5.63
2018-11-26T07:53:38.187Z,5.59
2018-11-26T07:56:43.828Z,5.66
2018-11-26T07:59:49.705Z,5.64
2018-11-26T08:02:55.227Z,5.59
2018-11-26T08:06:01.115Z,5.63
2018-11-26T08:09:08.195Z,5.65
2018-11-26T08:12:13.957Z,5.54
2018-11-26T08:15:30.158Z,5.50
2018-11-26T08:18:36.062Z,5.61
2018-11-26T08:21:41.801Z,5.80
2018-11-26T08:24:47.443Z,5.57
2018-11-26T08:27:53.091Z,5.60
2018-11-26T08:30:58.846Z,5.84
2018-11-26T08:34:04.730Z,5.94
2018-11-26T08:45:16.739Z,6.02
2018-11-26T08:48:29.221Z,6.05
2018-11-26T08:51:35.221Z,6.07
2018-11-26T08:54:40.863Z,6.25
2018-11-26T08:57:46.671Z,6.42
2018-11-26T09:00:58.026Z,6.53
2018-11-26T09:04:04.388Z,6.53
2018-11-26T09:07:10.154Z,6.45
2018-11-26T09:10:15.677Z,6.66
2018-11-26T09:13:21.437Z,6.61
2018-11-26T09:16:27.081Z,6.44
2018-11-26T09:19:32.847Z,6.61
2018-11-26T09:22:38.600Z,6.58
2018-11-26T09:25:44.485Z,6.51
2018-11-26T09:28:53.367Z,6.65
2018-11-26T09:31:59.011Z,6.64
2018-11-26T09:35:06.796Z,6.72
2018-11-26T09:38:13.135Z,6.68
2018-11-26T09:41:18.094Z,6.87
2018-11-26T09:44:23.739Z,7.17
2018-11-26T09:47:29.980Z,7.28
2018-11-26T09:50:36.461Z,7.23
2018-11-26T10:01:44.392Z,7.00
2018-11-26T10:04:50.160Z,7.14
2018-11-26T10:07:55.912Z,7.09
2018-11-26T10:11:02.041Z,7.20
2018-11-26T10:14:08.400Z,7.33
2018-11-26T10:17:27.122Z,7.19
2018-11-26T10:20:33.246Z,7.29
2018-11-26T10:23:49.087Z,7.50
2018-11-26T10:26:55.207Z,7.46
2018-11-26T10:30:00.846Z,7.57
2018-11-26T10:33:06.612Z,7.67
2018-11-26T10:36:12.494Z,7.71
2018-11-26T10:39:18.254Z,7.71
2018-11-26T10:42:44.896Z,7.36
2018-11-26T10:45:50.782Z,7.42
2018-11-26T10:48:56.421Z,7.23
2018-11-26T10:52:02.426Z,7.22
2018-11-26T10:55:11.189Z,7.30
2018-11-26T10:58:17.106Z,7.30
2018-11-26T11:01:28.474Z,7.21
2018-11-26T11:04:34.350Z,7.26
2018-11-26T11:07:40.476Z,7.15
2018-11-26T11:10:47.796Z,7.18
2018-11-26T11:13:55.718Z,7.07
2018-11-26T11:17:02.204Z,7.23
2018-11-26T11:20:26.204Z,7.29
2018-11-26T11:23:31.967Z,7.38
2018-11-26T11:26:39.292Z,7.49
2018-11-26T11:29:44.931Z,7.49
2018-11-26T11:32:51.649Z,7.45
2018-11-26T11:35:57.652Z,7.34
2018-11-26T11:39:06.660Z,7.34
2018-11-26T11:42:12.898Z,7.20
2018-11-26T11:45:18.900Z,7.32
2018-11-26T11:48:24.900Z,7.24
2018-11-26T11:51:31.627Z,7.30
2018-11-26T11:54:37.385Z,7.40
2018-11-26T11:57:43.160Z,7.49
2018-11-26T12:00:49.987Z,7.48
2018-11-26T12:03:55.875Z,7.49
2018-11-26T12:07:01.515Z,7.46
2018-11-26T12:10:09.315Z,7.19
2018-11-26T12:13:17.243Z,7.17
2018-11-26T12:16:22.879Z,7.25
2018-11-26T12:19:38.842Z,7.18
2018-11-26T12:22:45.809Z,7.28
2018-11-26T12:25:52.798Z,7.34
2018-11-26T12:28:59.608Z,7.25
2018-11-26T12:32:05.788Z,7.21
2018-11-26T12:35:11.851Z,7.18
2018-11-26T12:38:17.498Z,7.18
2018-11-26T12:41:23.256Z,7.27
2018-11-26T12:44:47.628Z,7.28
2018-11-26T12:47:53.621Z,7.28
2018-11-26T12:50:59.383Z,7.17
2018-11-26T12:54:06.833Z,7.26
2018-11-26T12:57:12.717Z,7.42
2018-11-26T13:00:21.709Z,7.28
2018-11-26T13:03:27.747Z,7.27
2018-11-26T13:10:32.639Z,7.18
2018-11-26T13:13:38.399Z,7.02
2018-11-26T13:16:44.897Z,7.22
2018-11-26T13:19:50.647Z,7.25
2018-11-26T13:22:56.294Z,7.21
2018-11-26T13:26:01.930Z,7.37
2018-11-26T13:29:07.330Z,7.51
2018-11-26T13:32:12.974Z,7.56
2018-11-26T13:35:19.094Z,7.44
2018-11-26T13:38:24.858Z,7.35
2018-11-26T13:41:30.739Z,7.23
2018-11-26T13:44:36.505Z,7.38
2018-11-26T13:47:42.748Z,7.37
2018-11-26T13:50:55.225Z,7.47
2018-11-26T13:54:00.868Z,7.35
2018-11-26T13:57:06.634Z,7.37
2018-11-26T14:00:15.392Z,7.34
2018-11-26T14:03:21.278Z,7.48
2018-11-26T14:10:27.640Z,7.46
2018-11-26T14:13:33.049Z,7.31
2018-11-26T14:16:38.566Z,7.34
2018-11-26T14:19:52.368Z,7.42
2018-11-26T14:22:58.373Z,7.48
2018-11-26T14:26:04.133Z,7.45
2018-11-26T14:29:09.893Z,7.38
2018-11-26T14:32:15.537Z,7.47
2018-11-26T14:35:21.301Z,7.46
2018-11-26T14:38:27.300Z,7.35
2018-11-26T14:41:32.942Z,7.30
2018-11-26T14:44:38.467Z,7.37
2018-11-26T14:47:44.471Z,7.45
2018-11-26T14:50:50.347Z,7.46
2018-11-26T14:53:58.029Z,7.41
2018-11-26T14:57:03.791Z,7.47
2018-11-26T15:00:12.438Z,7.28
2018-11-26T15:03:18.559Z,7.21
2018-11-26T15:06:24.201Z,7.12
2018-11-26T15:09:29.720Z,7.22
2018-11-26T15:12:35.606Z,7.28
2018-11-26T15:15:41.490Z,7.29
2018-11-26T15:18:47.014Z,7.29
2018-11-26T15:21:52.647Z,7.21
2018-11-26T15:24:58.175Z,7.10
2018-11-26T15:28:31.179Z,7.07
2018-11-26T15:31:59.140Z,7.11
2018-11-26T15:35:14.862Z,7.14
2018-11-26T15:38:20.627Z,7.26
2018-11-26T15:41:39.706Z,7.09
2018-11-26T15:44:45.227Z,7.18
2018-11-26T15:47:55.549Z,7.42
2018-11-26T15:51:00.947Z,7.28
2018-11-26T15:54:06.477Z,7.40
2018-11-26T15:57:12.235Z,7.46
2018-11-26T16:00:22.199Z,7.52
2018-11-26T16:03:28.080Z,7.49
2018-11-26T16:06:33.960Z,7.38
2018-11-26T16:09:39.605Z,7.23
2018-11-26T16:12:46.564Z,7.06
2018-11-26T16:15:51.967Z,6.95
2018-11-26T16:18:57.488Z,6.99
2018-11-26T16:22:23.889Z,7.13
2018-11-26T16:25:29.774Z,7.05
2018-11-26T16:28:35.295Z,7.03
2018-11-26T16:31:40.699Z,7.10
2018-11-26T16:34:46.220Z,7.15
2018-11-26T16:37:51.620Z,7.22
2018-11-26T16:40:57.147Z,7.23
2018-11-26T16:44:02.667Z,7.14
2018-11-26T16:47:08.426Z,7.19
2018-11-26T16:50:15.029Z,7.22
2018-11-26T16:53:20.673Z,7.22
2018-11-26T16:56:26.797Z,7.21
2018-11-26T16:59:32.555Z,7.25
2018-11-26T17:02:38.442Z,7.22
2018-11-26T17:05:44.318Z,7.12
2018-11-26T17:08:50.208Z,7.18
2018-11-26T17:11:55.968Z,7.21
2018-11-26T17:15:01.488Z,7.05
2018-11-26T17:18:07.850Z,6.98
2018-11-26T17:21:13.371Z,7.06
2018-11-26T17:24:19.013Z,7.03
2018-11-26T17:27:24.415Z,7.07
2018-11-26T17:30:29.937Z,7.01
2018-11-26T17:33:36.102Z,7.08
2018-11-26T17:36:41.465Z,7.07
2018-11-26T17:39:47.106Z,7.07
2018-11-26T17:42:53.229Z,7.06
2018-11-26T17:45:58.635Z,7.11
2018-11-26T17:49:04.992Z,7.12
2018-11-26T17:52:10.634Z,7.09
2018-11-26T17:55:15.915Z,7.13
2018-11-26T17:58:29.356Z,7.17
2018-11-26T18:01:40.047Z,7.09
2018-11-26T18:04:45.800Z,7.04
2018-11-26T18:08:16.881Z,7.01
2018-11-26T18:11:22.288Z,6.88
2018-11-26T18:14:30.207Z,6.89
2018-11-26T18:17:36.091Z,6.78
2018-11-26T18:20:41.619Z,6.72
2018-11-26T18:23:47.257Z,6.69
2018-11-26T18:26:52.895Z,6.62
2018-11-26T18:29:58.536Z,6.61
2018-11-26T18:33:10.420Z,6.51
2018-11-26T18:36:16.061Z,6.58
2018-11-26T18:39:35.864Z,6.66
2018-11-26T18:42:47.146Z,6.65
2018-11-26T18:45:52.671Z,6.55
2018-11-26T18:48:58.562Z,6.38
2018-11-26T18:52:03.969Z,6.41
2018-11-26T18:55:10.313Z,6.43
2018-11-26T18:58:15.959Z,6.27
2018-11-26T19:01:21.481Z,6.32
2018-11-26T19:04:27.360Z,6.07
2018-11-26T19:07:33.002Z,5.93
2018-11-26T19:10:38.773Z,5.94
2018-11-26T19:13:51.606Z,6.17
2018-11-26T19:16:58.813Z,6.17
2018-11-26T19:20:05.900Z,5.99
2018-11-26T19:23:11.654Z,6.01
2018-11-26T19:26:17.416Z,5.89
2018-11-26T19:29:22.940Z,5.77
2018-11-26T19:32:28.579Z,5.92
2018-11-26T19:35:34.106Z,5.77
2018-11-26T19:38:39.745Z,5.91
2018-11-26T19:41:45.384Z,5.75
2018-11-26T19:44:51.267Z,5.82
2018-11-26T19:47:56.910Z,5.85
2018-11-26T19:51:02.552Z,5.80
2018-11-26T19:54:08.083Z,5.80
2018-11-26T19:57:13.954Z,5.71
2018-11-26T20:08:25.368Z,5.57
2018-11-26T20:11:33.361Z,5.63
2018-11-26T20:14:37.128Z,5.54
2018-11-26T20:17:43.248Z,5.46
2018-11-26T20:20:49.377Z,5.58
2018-11-26T20:23:55.372Z,5.63
2018-11-26T20:27:01.138Z,5.68
2018-11-26T20:34:06.062Z,5.90
2018-11-26T20:37:11.701Z,5.97
2018-11-26T20:40:21.074Z,5.95
2018-11-26T20:43:26.589Z,5.96
2018-11-26T20:46:32.236Z,6.02
2018-11-26T20:49:37.750Z,5.93
2018-11-26T20:52:43.393Z,5.92
2018-11-26T20:55:49.663Z,5.99
2018-11-26T20:58:55.158Z,5.97
2018-11-26T21:02:00.919Z,5.98
2018-11-26T21:05:07.042Z,6.00
2018-11-26T21:08:12.446Z,6.05
2018-11-26T21:11:17.966Z,6.01
2018-11-26T21:14:24.448Z,6.02
2018-11-26T21:17:31.049Z,6.00
2018-11-26T21:20:41.013Z,6.00
2018-11-26T21:23:46.777Z,5.96
2018-11-26T21:26:52.296Z,5.93
2018-11-26T21:29:57.938Z,5.92
2018-11-26T21:33:03.340Z,5.85
2018-11-26T21:36:08.742Z,5.68
2018-11-26T21:39:14.503Z,5.35
2018-11-26T21:42:20.146Z,5.45
2018-11-26T21:45:30.587Z,5.53
2018-11-26T21:48:36.111Z,5.60
2018-11-26T21:51:42.233Z,5.60
2018-11-26T21:54:47.635Z,5.48
2018-11-26T21:57:52.923Z,5.47
2018-11-26T22:00:59.998Z,5.44
2018-11-26T22:04:05.883Z,5.32
2018-11-26T22:07:11.402Z,5.28
2018-11-26T22:10:18.245Z,5.31
2018-11-26T22:13:30.248Z,5.21
2018-11-26T22:16:35.649Z,5.22
2018-11-26T22:19:41.291Z,5.15
2018-11-26T22:22:46.933Z,5.12
2018-11-26T22:25:52.495Z,4.99
2018-11-26T22:28:57.977Z,5.01
2018-11-26T22:32:18.259Z,5.13
2018-11-26T22:35:23.661Z,5.19
2018-11-26T22:38:29.063Z,5.24
2018-11-26T22:41:34.826Z,5.26
2018-11-26T22:44:40.108Z,5.33
2018-11-26T22:47:48.149Z,5.36
2018-11-26T22:50:53.551Z,5.31
2018-11-26T22:53:59.074Z,5.19
2018-11-26T22:57:05.554Z,4.82
2018-11-26T23:03:17.200Z,4.87
2018-11-26T23:06:22.606Z,4.94
2018-11-26T23:09:28.124Z,5.00
2018-11-26T23:12:33.526Z,5.07
2018-11-26T23:15:38.969Z,4.89
2018-11-26T23:18:44.330Z,4.84
2018-11-26T23:21:50.482Z,4.89
2018-11-26T23:24:55.134Z,4.70
2018-11-26T23:28:00.536Z,4.48
2018-11-26T23:31:06.180Z,4.42
2018-11-26T23:34:11.460Z,4.50
2018-11-26T23:37:16.864Z,4.60
2018-11-26T23:40:22.151Z,4.72
2018-11-26T23:43:27.546Z,4.79
2018-11-26T23:46:32.949Z,4.87
2018-11-26T23:49:38.472Z,4.88
2018-11-26T23:52:44.353Z,4.85
2018-11-26T23:55:49.995Z,4.77
2018-11-26T23:58:55.517Z,4.69
